Time;durP1;ratioP1;P1;durP2;ratioP2;P2;SDS_P1;SDS_P2;PMS_P1;PMS_P2;Temp;Humidity;BMP_temperature;BMP_pressure;BME280_temperature;BME280_humidity;BME280_pressure;Samples;Min_cycle;Max_cycle;Signal;HPM_P1;HPM_P2
2020/12/25 00:01:31;;;;;;;1.25;1.15;;;4.80;99.90;;;;;;5071986;28;20450;-83
2020/12/25 00:03:58;;;;;;;0.50;0.50;;;4.80;99.90;;;;;;5071905;28;20056;-83
2020/12/25 00:06:32;;;;;;;0.77;0.75;;;5.00;99.90;;;;;;5071852;28;20111;-83
2020/12/25 00:08:57;;;;;;;1.80;1.17;;;5.00;99.90;;;;;;5087522;28;20044;-83
2020/12/25 00:11:30;;;;;;;0.50;0.50;;;4.90;99.90;;;;;;5093320;28;20032;-82
2020/12/25 00:13:55;;;;;;;0.50;0.47;;;5.00;99.90;;;;;;5093619;28;20505;-83
2020/12/25 00:16:28;;;;;;;1.55;0.80;;;4.90;99.90;;;;;;5075070;28;20111;-83
2020/12/25 00:18:55;;;;;;;0.70;0.70;;;4.80;99.90;;;;;;5075092;28;20016;-83
2020/12/25 00:21:21;;;;;;;0.95;0.73;;;4.80;99.90;;;;;;5075184;28;20021;-83
2020/12/25 00:23:47;;;;;;;1.30;0.70;;;4.90;99.90;;;;;;5075168;28;20046;-83
2020/12/25 00:26:30;;;;;;;0.85;0.55;;;4.90;99.90;;;;;;5075088;28;20034;-83
2020/12/25 00:28:57;;;;;;;0.75;0.63;;;5.00;99.90;;;;;;5075056;28;20035;-83
2020/12/25 00:31:26;;;;;;;0.50;0.50;;;5.10;99.90;;;;;;5093171;28;20374;-83
2020/12/25 00:33:52;;;;;;;0.70;0.60;;;4.90;99.90;;;;;;5075950;28;20077;-83
2020/12/25 00:36:32;;;;;;;0.70;0.55;;;5.10;99.90;;;;;;5078635;28;20028;-83
2020/12/25 00:39:00;;;;;;;0.73;0.60;;;5.00;99.90;;;;;;5078642;28;20024;-83
2020/12/25 00:41:26;;;;;;;0.60;0.60;;;5.10;99.90;;;;;;5096770;28;20017;-83
2020/12/25 00:43:53;;;;;;;0.90;0.65;;;5.00;99.90;;;;;;5078530;28;20093;-83
2020/12/25 00:46:19;;;;;;;0.60;0.60;;;4.90;99.90;;;;;;5078515;28;20522;-83
2020/12/25 00:48:44;;;;;;;0.70;0.70;;;4.90;99.90;;;;;;5096876;28;20028;-83
2020/12/25 00:51:18;;;;;;;0.70;0.70;;;4.80;99.90;;;;;;5078434;28;20102;-83
2020/12/25 00:53:44;;;;;;;0.68;0.68;;;4.90;99.90;;;;;;5078458;28;20024;-83
2020/12/25 00:56:11;;;;;;;0.70;0.70;;;4.90;99.90;;;;;;5096687;28;20378;-83
2020/12/25 00:58:38;;;;;;;0.70;0.70;;;5.00;99.90;;;;;;5078279;28;20383;-83
2020/12/25 01:01:05;;;;;;;0.60;0.60;;;5.00;99.90;;;;;;5078269;28;20094;-83
2020/12/25 01:03:35;;;;;;;0.80;0.70;;;5.00;99.90;;;;;;5096404;28;20028;-83
2020/12/25 01:06:01;;;;;;;1.23;0.80;;;5.00;99.90;;;;;;5078099;28;20447;-83
2020/12/25 01:08:27;;;;;;;0.75;0.73;;;5.00;99.90;;;;;;5096079;28;20055;-83
2020/12/25 01:10:53;;;;;;;0.65;0.65;;;5.10;99.90;;;;;;5078017;28;20024;-83
2020/12/25 01:13:19;;;;;;;0.90;0.80;;;5.10;99.90;;;;;;5077955;28;20024;-83
2020/12/25 01:15:44;;;;;;;2.63;0.80;;;5.10;99.90;;;;;;5077882;28;20383;-83
2020/12/25 01:18:10;;;;;;;1.13;0.80;;;5.20;99.90;;;;;;5077926;28;20020;-83
2020/12/25 01:20:36;;;;;;;0.77;0.70;;;5.10;99.90;;;;;;5077912;28;20024;-83
2020/12/25 01:23:05;;;;;;;1.23;0.70;;;5.10;99.90;;;;;;5077791;28;20021;-83
2020/12/25 01:25:31;;;;;;;1.25;1.00;;;5.10;99.90;;;;;;5095913;28;20096;-83
2020/12/25 01:27:57;;;;;;;1.67;0.90;;;5.00;99.90;;;;;;5095873;28;20090;-83
2020/12/25 01:30:23;;;;;;;1.90;1.30;;;4.90;99.90;;;;;;5096090;28;20028;-83
2020/12/25 01:32:48;;;;;;;1.30;1.05;;;5.00;99.90;;;;;;5096051;28;20032;-83
2020/12/25 01:35:14;;;;;;;1.27;1.08;;;4.90;99.90;;;;;;5077519;28;20564;-83
2020/12/25 01:37:40;;;;;;;2.00;1.20;;;4.90;99.90;;;;;;5095664;28;20047;-83
2020/12/25 01:40:06;;;;;;;1.50;1.20;;;4.90;99.90;;;;;;5077397;28;20074;-83
2020/12/25 01:42:33;;;;;;;1.95;1.20;;;4.90;99.90;;;;;;5095853;28;20032;-83
2020/12/25 01:44:59;;;;;;;2.85;1.40;;;4.90;99.90;;;;;;5076906;28;20024;-83
2020/12/25 01:47:25;;;;;;;2.25;1.23;;;4.90;99.90;;;;;;5095156;28;20081;-82
2020/12/25 01:49:50;;;;;;;3.25;1.17;;;5.00;99.90;;;;;;5095389;28;20475;-83
2020/12/25 01:52:17;;;;;;;2.00;1.30;;;5.00;99.90;;;;;;5095457;28;20103;-83
2020/12/25 01:54:44;;;;;;;1.52;1.30;;;4.90;99.90;;;;;;5077220;28;20047;-83
2020/12/25 01:57:14;;;;;;;3.50;1.30;;;5.00;99.90;;;;;;5077193;28;20119;-83
2020/12/25 01:59:41;;;;;;;3.17;1.25;;;5.00;99.90;;;;;;5077163;28;20027;-83
2020/12/25 02:02:08;;;;;;;1.40;1.30;;;5.00;99.90;;;;;;5077663;28;20047;-83
2020/12/25 02:04:34;;;;;;;2.03;1.33;;;4.90;99.90;;;;;;5076957;28;20077;-82
2020/12/25 02:07:00;;;;;;;2.15;1.17;;;4.70;99.90;;;;;;5076893;28;20032;-83
2020/12/25 02:09:25;;;;;;;1.55;1.42;;;4.60;99.90;;;;;;5076752;28;20048;-83
2020/12/25 02:11:53;;;;;;;1.65;1.30;;;4.80;99.90;;;;;;5076859;28;20028;-83
2020/12/25 02:14:19;;;;;;;2.88;1.23;;;4.90;99.90;;;;;;5094940;28;20028;-83
2020/12/25 02:16:45;;;;;;;2.63;1.30;;;4.70;99.90;;;;;;5076742;28;20032;-82
2020/12/25 02:19:11;;;;;;;3.50;1.40;;;4.50;99.90;;;;;;5076719;28;20026;-83
2020/12/25 02:21:36;;;;;;;1.48;1.38;;;4.60;99.90;;;;;;5076499;28;20494;-83
2020/12/25 02:24:03;;;;;;;1.77;1.60;;;4.70;99.90;;;;;;5094741;28;20016;-82
2020/12/25 02:26:29;;;;;;;2.58;1.48;;;4.60;99.90;;;;;;5076629;28;20028;-83
2020/12/25 02:28:55;;;;;;;3.70;1.40;;;4.70;99.90;;;;;;5076481;28;20028;-82
2020/12/25 02:31:21;;;;;;;3.00;1.75;;;4.70;99.90;;;;;;5076505;28;20032;-82
2020/12/25 02:33:47;;;;;;;1.77;1.55;;;4.70;99.90;;;;;;5076494;28;20020;-82
2020/12/25 02:36:12;;;;;;;2.88;1.50;;;4.70;99.90;;;;;;5076343;28;20020;-83
2020/12/25 02:38:38;;;;;;;1.42;1.33;;;4.80;99.90;;;;;;5095107;28;20024;-82
2020/12/25 02:41:04;;;;;;;1.25;1.10;;;4.80;99.90;;;;;;5076370;28;20016;-82
2020/12/25 02:43:29;;;;;;;2.08;1.45;;;4.70;99.90;;;;;;5094425;28;20379;-82
2020/12/25 02:45:55;;;;;;;2.05;1.40;;;4.70;99.90;;;;;;5076253;28;20024;-83
2020/12/25 02:48:21;;;;;;;1.92;1.13;;;4.90;99.90;;;;;;5094354;28;20020;-82
2020/12/25 02:50:47;;;;;;;2.13;1.20;;;4.80;99.90;;;;;;5094331;28;20103;-82
2020/12/25 02:53:12;;;;;;;2.17;1.48;;;4.70;99.90;;;;;;5094279;28;20498;-83
2020/12/25 02:55:38;;;;;;;1.63;1.20;;;4.80;99.90;;;;;;5075986;28;20031;-82
2020/12/25 02:58:04;;;;;;;4.13;1.45;;;4.80;99.90;;;;;;5075986;28;20028;-83
2020/12/25 03:00:29;;;;;;;1.98;1.50;;;4.90;99.90;;;;;;5076005;28;20471;-82
2020/12/25 03:02:55;;;;;;;1.58;1.20;;;4.80;99.90;;;;;;5094173;28;20020;-82
2020/12/25 03:05:21;;;;;;;1.58;1.02;;;5.00;99.90;;;;;;5094053;28;20120;-83
2020/12/25 03:07:46;;;;;;;1.30;1.15;;;5.00;99.90;;;;;;5075692;28;20051;-82
2020/12/25 03:10:12;;;;;;;1.73;1.00;;;5.00;99.90;;;;;;5094011;28;20110;-82
2020/12/25 03:12:38;;;;;;;2.45;1.20;;;4.90;99.90;;;;;;5093949;28;20475;-83
2020/12/25 03:15:04;;;;;;;1.23;1.02;;;4.80;99.90;;;;;;5093824;28;20024;-82
2020/12/25 03:17:29;;;;;;;1.55;1.30;;;4.90;99.90;;;;;;5075747;28;20028;-82
2020/12/25 03:19:55;;;;;;;1.38;1.17;;;4.90;99.90;;;;;;5075772;28;20103;-82
2020/12/25 03:22:21;;;;;;;1.27;1.10;;;4.90;99.90;;;;;;5093822;28;20016;-82
2020/12/25 03:24:46;;;;;;;1.40;0.93;;;4.80;99.90;;;;;;5075689;28;20028;-83
2020/12/25 03:27:12;;;;;;;1.15;1.00;;;4.80;99.90;;;;;;5075627;28;20063;-82
2020/12/25 03:29:38;;;;;;;1.83;1.10;;;4.80;99.90;;;;;;5093700;28;20107;-83
2020/12/25 03:32:03;;;;;;;1.75;1.20;;;4.80;99.90;;;;;;5075668;28;20046;-82
2020/12/25 03:34:29;;;;;;;2.05;1.40;;;4.80;99.90;;;;;;5093617;28;20088;-83
2020/12/25 03:36:57;;;;;;;1.58;1.02;;;4.90;99.90;;;;;;5075527;28;20024;-82
2020/12/25 03:39:23;;;;;;;2.38;1.20;;;5.00;99.90;;;;;;5075532;28;20027;-82
2020/12/25 03:41:51;;;;;;;1.73;1.25;;;4.90;99.90;;;;;;5093839;28;20029;-82
2020/12/25 03:44:17;;;;;;;1.30;1.17;;;4.80;99.90;;;;;;5093879;28;20017;-83
2020/12/25 03:46:42;;;;;;;1.15;1.05;;;4.90;99.90;;;;;;5075449;28;20030;-82
2020/12/25 03:49:08;;;;;;;1.50;1.30;;;4.90;99.90;;;;;;5093525;28;20028;-82
2020/12/25 03:51:34;;;;;;;1.50;1.40;;;4.80;99.90;;;;;;5093496;28;20031;-82
2020/12/25 03:53:59;;;;;;;1.95;1.05;;;4.80;99.90;;;;;;5093458;28;20052;-82
2020/12/25 03:56:26;;;;;;;1.35;1.10;;;4.90;99.90;;;;;;5093395;28;20035;-82
2020/12/25 03:58:51;;;;;;;1.15;1.05;;;4.90;99.90;;;;;;5093606;28;20024;-82
2020/12/25 04:01:17;;;;;;;0.90;0.90;;;4.80;99.90;;;;;;5093432;28;20077;-82
2020/12/25 04:03:43;;;;;;;1.48;1.10;;;4.90;99.90;;;;;;5093409;28;20027;-82
2020/12/25 04:06:09;;;;;;;1.08;0.98;;;4.90;99.90;;;;;;5075218;28;20024;-83
2020/12/25 04:08:34;;;;;;;1.35;0.98;;;5.00;99.90;;;;;;5075740;28;20052;-82
2020/12/25 04:11:00;;;;;;;1.20;1.10;;;5.00;99.90;;;;;;5079541;28;20505;-82
2020/12/25 04:13:26;;;;;;;1.10;1.00;;;4.90;99.90;;;;;;5097351;28;20025;-82
2020/12/25 04:15:51;;;;;;;1.10;1.00;;;4.90;99.90;;;;;;5079084;28;20550;-83
2020/12/25 04:18:17;;;;;;;1.00;0.90;;;5.00;99.90;;;;;;5079068;28;20020;-83
2020/12/25 04:20:43;;;;;;;1.52;1.40;;;4.90;99.90;;;;;;5078963;28;20020;-82
2020/12/25 04:23:08;;;;;;;1.70;1.23;;;4.90;99.90;;;;;;5097154;28;20047;-82
2020/12/25 04:25:34;;;;;;;1.38;1.15;;;4.80;99.90;;;;;;5097148;28;20532;-82
2020/12/25 04:28:00;;;;;;;1.30;1.20;;;5.00;99.90;;;;;;5078887;28;20028;-83
2020/12/25 04:30:25;;;;;;;1.05;0.95;;;5.00;99.90;;;;;;5078876;28;20036;-82
2020/12/25 04:32:51;;;;;;;1.92;1.08;;;4.90;99.90;;;;;;5078955;28;20028;-83
2020/12/25 04:35:17;;;;;;;3.05;1.40;;;4.90;99.90;;;;;;5078690;28;20031;-82
2020/12/25 04:37:43;;;;;;;1.60;1.27;;;4.80;99.90;;;;;;5078671;28;20016;-82
2020/12/25 04:40:08;;;;;;;1.40;1.23;;;4.90;99.90;;;;;;5097123;28;20463;-82
2020/12/25 04:42:41;;;;;;;1.40;1.30;;;4.90;99.90;;;;;;5078646;28;20647;-82
2020/12/25 04:45:08;;;;;;;1.60;1.33;;;4.90;99.90;;;;;;5097026;28;20046;-82
2020/12/25 04:47:34;;;;;;;1.23;1.08;;;4.90;99.90;;;;;;5078539;28;20028;-83
2020/12/25 04:50:04;;;;;;;1.40;1.30;;;4.80;99.90;;;;;;5096775;28;20024;-82
2020/12/25 04:52:30;;;;;;;1.48;1.38;;;4.70;99.90;;;;;;5078397;28;20023;-82
2020/12/25 04:54:55;;;;;;;2.08;1.52;;;4.70;99.90;;;;;;5078265;28;20076;-82
2020/12/25 04:57:21;;;;;;;2.95;1.70;;;4.80;99.90;;;;;;5096593;28;20368;-82
2020/12/25 04:59:47;;;;;;;1.73;1.38;;;4.80;99.90;;;;;;5078332;28;20120;-83
2020/12/25 05:02:14;;;;;;;1.88;1.40;;;4.90;99.90;;;;;;5078487;28;20131;-82
2020/12/25 05:04:40;;;;;;;1.88;1.60;;;5.00;99.90;;;;;;5096452;28;20464;-82
2020/12/25 05:07:06;;;;;;;3.08;1.92;;;4.90;99.90;;;;;;5077996;28;20035;-82
2020/12/25 05:09:32;;;;;;;2.10;1.65;;;4.80;99.90;;;;;;5096127;28;20064;-83
2020/12/25 05:11:58;;;;;;;1.90;1.80;;;4.80;99.90;;;;;;5078031;28;20061;-82
2020/12/25 05:14:29;;;;;;;2.22;1.80;;;4.80;99.90;;;;;;5077955;28;20035;-83
2020/12/25 05:16:56;;;;;;;3.05;2.22;;;4.80;99.90;;;;;;5077977;28;20258;-83
2020/12/25 05:19:32;;;;;;;1.95;1.85;;;4.70;99.90;;;;;;5095992;28;20017;-82
2020/12/25 05:21:59;;;;;;;2.28;1.90;;;4.80;99.90;;;;;;5095354;28;20063;-82
2020/12/25 05:24:26;;;;;;;2.42;1.80;;;4.80;99.90;;;;;;5095934;28;20032;-83
2020/12/25 05:26:57;;;;;;;2.67;1.75;;;4.80;99.90;;;;;;5095953;28;20468;-83
2020/12/25 05:29:27;;;;;;;2.42;2.10;;;4.70;99.90;;;;;;5096143;28;20030;-83
2020/12/25 05:31:54;;;;;;;2.83;2.47;;;4.70;99.90;;;;;;5077684;28;20028;-83
2020/12/25 05:34:21;;;;;;;2.90;2.05;;;4.70;99.90;;;;;;5095720;28;20440;-83
2020/12/25 05:36:52;;;;;;;2.97;2.17;;;4.60;99.90;;;;;;5077573;28;20016;-83
2020/12/25 05:39:25;;;;;;;2.40;1.98;;;4.60;99.90;;;;;;5095965;28;20454;-83
2020/12/25 05:41:58;;;;;;;2.58;2.13;;;4.60;99.90;;;;;;5077452;28;20529;-83
2020/12/25 05:44:29;;;;;;;3.75;2.10;;;4.70;99.90;;;;;;5077557;28;20028;-83
2020/12/25 05:47:01;;;;;;;3.78;2.10;;;4.70;99.90;;;;;;5095546;28;20387;-83
2020/12/25 05:49:28;;;;;;;2.63;2.10;;;4.60;99.90;;;;;;5095475;28;20016;-83
2020/12/25 05:51:54;;;;;;;2.10;1.90;;;4.70;99.90;;;;;;5077310;28;20111;-83
2020/12/25 05:54:25;;;;;;;2.25;1.90;;;4.70;99.90;;;;;;5095589;28;20121;-83
2020/12/25 05:56:59;;;;;;;2.38;2.00;;;4.80;99.90;;;;;;5095445;28;20426;-83
2020/12/25 05:59:30;;;;;;;2.92;2.47;;;4.80;99.90;;;;;;5077220;28;20115;-83
2020/12/25 06:02:02;;;;;;;2.58;2.20;;;4.70;99.90;;;;;;5095282;28;20480;-83
2020/12/25 06:04:31;;;;;;;2.25;2.05;;;4.70;99.90;;;;;;5095479;28;20024;-83
2020/12/25 06:06:57;;;;;;;2.90;1.95;;;4.80;99.90;;;;;;5095054;28;20035;-83
2020/12/25 06:09:34;;;;;;;2.22;2.03;;;4.80;99.90;;;;;;5094767;28;20124;-83
2020/12/25 06:12:03;;;;;;;2.40;2.20;;;4.70;99.90;;;;;;5077843;28;20120;-83
2020/12/25 06:14:29;;;;;;;2.60;2.00;;;4.70;99.90;;;;;;5076679;28;20467;-83
2020/12/25 06:17:18;;;;;;;3.03;2.10;;;4.70;99.90;;;;;;5076802;28;20027;-83
2020/12/25 06:19:58;;;;;;;2.88;2.30;;;4.70;99.90;;;;;;5076784;28;20024;-83
2020/12/25 06:22:31;;;;;;;2.20;2.00;;;4.60;99.90;;;;;;5094879;28;20020;-83
2020/12/25 06:25:00;;;;;;;3.25;2.15;;;4.80;99.90;;;;;;5076612;28;20383;-83
2020/12/25 06:27:27;;;;;;;3.00;2.20;;;4.50;99.90;;;;;;5076559;28;20031;-83
2020/12/25 06:29:56;;;;;;;4.65;2.20;;;4.50;99.90;;;;;;5094706;28;20466;-83
2020/12/25 06:32:26;;;;;;;2.70;2.45;;;4.70;99.90;;;;;;5076122;28;20056;-83
2020/12/25 06:34:55;;;;;;;2.40;2.20;;;4.80;99.90;;;;;;5076363;28;20032;-83
2020/12/25 06:37:27;;;;;;;3.40;2.35;;;4.80;99.90;;;;;;5076364;28;20107;-84
2020/12/25 06:40:05;;;;;;;2.47;1.90;;;4.70;99.90;;;;;;5076374;28;20027;-84
2020/12/25 06:42:32;;;;;;;2.83;2.15;;;4.50;99.90;;;;;;5095049;28;20055;-84
2020/12/25 06:45:00;;;;;;;2.65;2.28;;;4.70;99.90;;;;;;5094446;28;20020;-84
2020/12/25 06:47:30;;;;;;;5.20;2.45;;;4.60;99.90;;;;;;5076221;28;20024;-84
2020/12/25 06:49:56;;;;;;;15.77;5.55;;;4.50;99.90;;;;;;5094337;28;20028;-84
2020/12/25 06:52:30;;;;;;;19.75;5.35;;;4.50;99.90;;;;;;5076114;28;20529;-84
2020/12/25 06:54:57;;;;;;;2.50;2.20;;;4.50;99.90;;;;;;5094183;28;20471;-84
2020/12/25 06:57:27;;;;;;;3.40;2.65;;;4.40;99.90;;;;;;5076024;28;20386;-84
2020/12/25 06:59:56;;;;;;;3.28;2.53;;;4.50;99.90;;;;;;5075975;28;20019;-84
2020/12/25 07:02:23;;;;;;;3.97;2.67;;;4.70;99.90;;;;;;5094100;28;20020;-84
2020/12/25 07:04:50;;;;;;;3.58;2.83;;;4.70;99.90;;;;;;5094079;28;20052;-84
2020/12/25 07:07:19;;;;;;;2.92;2.30;;;4.70;99.90;;;;;;5075801;28;20085;-84
2020/12/25 07:09:47;;;;;;;2.83;2.38;;;4.60;99.90;;;;;;5093792;28;20044;-84
2020/12/25 07:12:19;;;;;;;3.00;2.20;;;4.70;99.90;;;;;;5075841;28;20383;-84
2020/12/25 07:14:45;;;;;;;2.65;2.35;;;4.70;99.90;;;;;;5075747;28;20056;-84
2020/12/25 07:17:11;;;;;;;2.95;2.45;;;4.70;99.90;;;;;;5075729;28;20494;-84
2020/12/25 07:19:37;;;;;;;3.20;2.45;;;4.60;99.90;;;;;;5093837;28;20360;-84
2020/12/25 07:22:05;;;;;;;2.53;2.08;;;4.60;99.90;;;;;;5094114;28;20027;-84
2020/12/25 07:24:31;;;;;;;3.33;2.65;;;4.60;99.90;;;;;;5093762;28;20073;-84
2020/12/25 07:26:56;;;;;;;2.95;2.50;;;4.70;99.90;;;;;;5093777;28;20070;-84
2020/12/25 07:29:24;;;;;;;3.47;2.70;;;4.50;99.90;;;;;;5075628;28;20024;-84
2020/12/25 07:31:52;;;;;;;3.15;2.50;;;4.50;99.90;;;;;;5075561;28;20442;-84
2020/12/25 07:34:22;;;;;;;3.97;2.28;;;4.50;99.90;;;;;;5075568;28;20016;-85
2020/12/25 07:36:56;;;;;;;3.78;2.60;;;4.40;99.90;;;;;;5093980;28;20059;-85
2020/12/25 07:39:24;;;;;;;2.47;1.73;;;4.50;99.90;;;;;;5093695;28;20103;-84
2020/12/25 07:41:49;;;;;;;3.33;2.40;;;4.50;99.90;;;;;;5075487;28;20024;-84
2020/12/25 07:44:16;;;;;;;3.50;2.60;;;4.50;99.90;;;;;;5079580;28;20027;-84
2020/12/25 07:46:43;;;;;;;3.97;2.22;;;4.30;99.90;;;;;;5100253;28;20024;-84
2020/12/25 07:49:09;;;;;;;3.28;2.28;;;4.30;99.90;;;;;;5100467;28;20062;-84
2020/12/25 07:51:36;;;;;;;2.70;2.20;;;4.20;99.90;;;;;;5065261;28;20225;-84
2020/12/25 07:54:04;;;;;;;2.40;2.20;;;4.40;99.90;;;;;;5082098;28;20035;-84
2020/12/25 07:56:32;;;;;;;2.92;2.08;;;4.40;99.90;;;;;;5100661;28;20020;-84
2020/12/25 07:58:58;;;;;;;2.38;2.17;;;4.50;99.90;;;;;;5081976;28;20023;-84
2020/12/25 08:01:26;;;;;;;3.63;2.35;;;4.40;99.90;;;;;;5100447;28;20030;-84
2020/12/25 08:03:53;;;;;;;2.28;1.83;;;4.30;99.90;;;;;;5100197;28;20485;-84
2020/12/25 08:06:20;;;;;;;1.85;1.75;;;4.30;99.90;;;;;;5100302;28;20032;-84
2020/12/25 08:08:49;;;;;;;3.47;1.92;;;4.50;99.90;;;;;;5081674;28;20048;-84
2020/12/25 08:11:16;;;;;;;2.10;1.90;;;4.40;99.90;;;;;;5100024;28;20035;-84
2020/12/25 08:13:44;;;;;;;2.83;1.80;;;4.30;99.90;;;;;;5100063;28;20024;-85
2020/12/25 08:16:10;;;;;;;1.65;1.55;;;4.40;99.90;;;;;;5100006;28;20475;-85
2020/12/25 08:18:37;;;;;;;2.58;2.13;;;4.40;99.90;;;;;;5081820;28;20451;-85
2020/12/25 08:21:03;;;;;;;2.83;2.22;;;4.40;99.90;;;;;;5100016;28;20078;-85
2020/12/25 08:23:35;;;;;;;4.88;2.40;;;4.40;99.90;;;;;;5099997;28;20052;-84
2020/12/25 08:26:03;;;;;;;6.78;4.70;;;4.60;99.90;;;;;;5099962;28;20062;-85
2020/12/25 08:28:32;;;;;;;6.18;3.63;;;4.50;99.90;;;;;;5081715;28;20024;-85
2020/12/25 08:31:12;;;;;;;2.70;2.38;;;4.50;99.90;;;;;;5081785;28;20391;-85
2020/12/25 08:33:37;;;;;;;3.92;3.10;;;4.30;99.90;;;;;;5100210;28;20028;-85
2020/12/25 08:36:11;;;;;;;2.95;2.65;;;4.30;99.90;;;;;;5100076;28;20027;-85
2020/12/25 08:38:41;;;;;;;3.40;3.10;;;4.40;99.90;;;;;;5099890;28;20471;-84
2020/12/25 08:41:07;;;;;;;3.42;2.75;;;4.40;99.90;;;;;;5099817;28;20028;-84
2020/12/25 08:43:32;;;;;;;3.38;3.05;;;4.60;99.90;;;;;;5081672;28;20047;-85
2020/12/25 08:45:59;;;;;;;17.70;8.45;;;4.50;99.90;;;;;;5099781;28;20046;-85
2020/12/25 08:48:26;;;;;;;7.60;3.83;;;4.30;99.90;;;;;;5099749;28;20479;-84
2020/12/25 08:51:08;;;;;;;4.32;3.92;;;4.30;99.90;;;;;;5099734;28;20056;-85
2020/12/25 08:53:34;;;;;;;4.50;3.72;;;4.50;99.90;;;;;;5081542;28;20055;-85
2020/12/25 08:56:16;;;;;;;4.65;3.25;;;4.40;99.90;;;;;;5078715;28;20101;-84
2020/12/25 08:58:58;;;;;;;5.53;3.85;;;4.70;99.90;;;;;;5078370;28;20024;-85
2020/12/25 09:01:24;;;;;;;5.20;3.70;;;4.70;99.90;;;;;;5096739;28;20479;-84
2020/12/25 09:03:50;;;;;;;4.47;3.97;;;4.70;99.90;;;;;;5078156;28;20111;-84
2020/12/25 09:06:16;;;;;;;5.78;4.22;;;4.60;99.90;;;;;;5078165;28;20383;-84
2020/12/25 09:08:43;;;;;;;5.43;4.65;;;4.70;99.90;;;;;;5096042;28;20044;-84
2020/12/25 09:11:13;;;;;;;4.88;4.32;;;4.60;99.90;;;;;;5078097;28;20060;-84
2020/12/25 09:13:39;;;;;;;4.45;3.97;;;4.40;99.90;;;;;;5096166;28;20020;-84
2020/12/25 09:16:06;;;;;;;4.70;3.65;;;4.30;99.90;;;;;;5096355;28;20489;-84
2020/12/25 09:18:33;;;;;;;5.00;4.22;;;4.50;99.90;;;;;;5077942;28;20069;-84
2020/12/25 09:21:00;;;;;;;6.00;4.13;;;4.70;99.90;;;;;;5096325;28;20016;-84
2020/12/25 09:23:26;;;;;;;5.47;4.70;;;4.70;99.90;;;;;;5077886;28;20024;-84
2020/12/25 09:25:52;;;;;;;6.68;5.53;;;4.70;99.90;;;;;;5077814;28;20463;-84
2020/12/25 09:28:18;;;;;;;6.53;4.95;;;4.60;99.90;;;;;;5095850;28;20108;-83
2020/12/25 09:30:43;;;;;;;8.82;5.95;;;4.50;99.90;;;;;;5077684;28;20020;-83
2020/12/25 09:33:09;;;;;;;7.93;5.53;;;4.50;99.90;;;;;;5077691;28;20028;-83
2020/12/25 09:35:35;;;;;;;8.23;5.38;;;4.50;99.90;;;;;;5095721;28;20081;-83
2020/12/25 09:38:01;;;;;;;10.43;7.47;;;4.50;99.90;;;;;;5077573;28;20353;-83
2020/12/25 09:40:27;;;;;;;9.23;5.50;;;4.50;99.90;;;;;;5077480;28;20020;-83
2020/12/25 09:42:53;;;;;;;11.32;7.22;;;4.50;99.90;;;;;;5095829;28;20035;-83
2020/12/25 09:45:18;;;;;;;9.70;6.70;;;4.50;99.90;;;;;;5077871;28;20024;-83
2020/12/25 09:47:44;;;;;;;10.68;6.43;;;4.40;99.90;;;;;;5096086;28;20036;-83
2020/12/25 09:50:10;;;;;;;8.35;6.50;;;4.40;99.90;;;;;;5095860;28;20020;-83
2020/12/25 09:52:36;;;;;;;9.63;7.57;;;4.10;99.90;;;;;;5095926;28;20100;-82
2020/12/25 09:55:03;;;;;;;9.80;6.70;;;4.10;99.90;;;;;;5095865;28;20028;-83
2020/12/25 09:57:28;;;;;;;11.15;7.00;;;4.20;99.90;;;;;;5096202;28;20026;-83
2020/12/25 09:59:55;;;;;;;10.13;6.47;;;4.10;99.90;;;;;;5096014;28;20099;-83
2020/12/25 10:02:21;;;;;;;9.52;6.18;;;4.30;99.90;;;;;;5077506;28;20076;-83
2020/12/25 10:04:47;;;;;;;10.45;6.68;;;4.20;99.90;;;;;;5077512;28;20390;-83
2020/12/25 10:07:13;;;;;;;10.13;7.32;;;4.10;99.90;;;;;;5076573;28;20031;-83
2020/12/25 10:09:39;;;;;;;7.90;6.68;;;4.20;99.90;;;;;;5095594;28;20040;-83
2020/12/25 10:12:05;;;;;;;10.52;7.18;;;4.20;99.90;;;;;;5077424;28;20024;-83
2020/12/25 10:14:31;;;;;;;8.25;6.05;;;4.30;99.90;;;;;;5077196;28;20506;-83
2020/12/25 10:16:57;;;;;;;12.00;7.18;;;4.40;99.90;;;;;;5077329;28;20016;-83
2020/12/25 10:19:23;;;;;;;11.63;6.72;;;4.30;99.90;;;;;;5077141;28;20031;-83
2020/12/25 10:21:49;;;;;;;9.18;6.45;;;4.40;99.90;;;;;;5077364;28;20382;-83
2020/12/25 10:24:15;;;;;;;8.07;5.82;;;4.40;99.90;;;;;;5095491;28;20024;-82
2020/12/25 10:26:41;;;;;;;13.38;7.60;;;4.60;99.90;;;;;;5095109;28;20383;-83
2020/12/25 10:29:07;;;;;;;8.30;6.07;;;4.50;99.90;;;;;;5095085;28;20081;-82
2020/12/25 10:31:32;;;;;;;9.50;6.20;;;4.50;99.90;;;;;;5095195;28;20023;-83
2020/12/25 10:33:58;;;;;;;9.95;6.28;;;4.50;99.90;;;;;;5076725;28;20442;-82
2020/12/25 10:36:25;;;;;;;11.07;6.70;;;4.50;99.90;;;;;;5094906;28;20032;-82
2020/12/25 10:38:51;;;;;;;10.88;6.78;;;4.50;99.90;;;;;;5094866;28;20024;-82
2020/12/25 10:41:17;;;;;;;12.73;6.00;;;4.40;99.90;;;;;;5094841;28;20020;-82
2020/12/25 10:43:42;;;;;;;8.43;6.35;;;4.30;99.90;;;;;;5094981;28;20428;-82
2020/12/25 10:46:08;;;;;;;8.02;6.43;;;4.20;99.90;;;;;;5076727;28;20028;-82
2020/12/25 10:48:34;;;;;;;10.85;6.90;;;4.10;99.90;;;;;;5076631;28;20055;-82
2020/12/25 10:51:00;;;;;;;8.73;6.15;;;4.10;99.90;;;;;;5076618;28;20027;-82
2020/12/25 10:53:26;;;;;;;11.88;7.43;;;4.30;99.90;;;;;;5076477;28;20036;-81
2020/12/25 10:55:51;;;;;;;26.35;16.33;;;4.10;99.90;;;;;;5076254;28;20474;-82
2020/12/25 10:58:17;;;;;;;44.17;22.95;;;4.10;99.90;;;;;;5076343;28;20074;-82
2020/12/25 11:00:43;;;;;;;16.08;9.20;;;4.00;99.90;;;;;;5094812;28;20077;-82
2020/12/25 11:03:08;;;;;;;15.50;10.40;;;4.20;99.90;;;;;;5094695;28;20086;-82
2020/12/25 11:05:34;;;;;;;15.65;9.10;;;4.20;99.90;;;;;;5094281;28;20039;-82
2020/12/25 11:08:01;;;;;;;12.23;7.53;;;4.20;99.90;;;;;;5094107;28;20095;-82
2020/12/25 11:10:27;;;;;;;22.98;11.18;;;4.30;99.90;;;;;;5094207;28;20036;-82
2020/12/25 11:12:52;;;;;;;19.20;10.15;;;4.30;99.90;;;;;;5094232;28;20137;-82
2020/12/25 11:15:18;;;;;;;15.13;8.15;;;4.40;99.90;;;;;;5094322;28;20028;-82
2020/12/25 11:17:44;;;;;;;14.75;7.65;;;4.40;99.90;;;;;;5093826;28;20016;-82
2020/12/25 11:20:10;;;;;;;40.38;23.60;;;4.40;99.90;;;;;;5094073;28;20016;-82
2020/12/25 11:22:35;;;;;;;23.77;17.63;;;4.40;99.90;;;;;;5076185;28;20020;-82
2020/12/25 11:25:01;;;;;;;18.40;9.98;;;4.30;99.90;;;;;;5092861;28;20382;-82
2020/12/25 11:27:27;;;;;;;10.88;8.05;;;4.20;99.90;;;;;;5075923;28;20074;-82
2020/12/25 11:29:52;;;;;;;10.23;8.13;;;4.10;99.90;;;;;;5094236;28;20028;-82
2020/12/25 11:32:19;;;;;;;8.80;7.13;;;4.10;99.90;;;;;;5076144;28;20427;-82
2020/12/25 11:34:45;;;;;;;14.80;8.25;;;4.00;99.90;;;;;;5094250;28;20032;-82
2020/12/25 11:37:10;;;;;;;11.77;8.73;;;4.20;99.90;;;;;;5094348;28;20016;-82
2020/12/25 11:39:36;;;;;;;12.15;6.88;;;4.20;99.90;;;;;;5094012;28;20044;-82
2020/12/25 11:42:02;;;;;;;11.07;6.88;;;4.30;99.90;;;;;;5075600;28;20490;-82
2020/12/25 11:44:27;;;;;;;8.07;5.60;;;4.30;99.90;;;;;;5075734;28;20024;-82
2020/12/25 11:47:00;;;;;;;10.07;5.85;;;4.20;99.90;;;;;;5094110;28;20076;-82
2020/12/25 11:49:25;;;;;;;9.88;6.13;;;4.20;99.90;;;;;;5094264;28;20034;-82
2020/12/25 11:51:56;;;;;;;9.98;6.47;;;4.30;99.90;;;;;;5093812;28;20095;-82
2020/12/25 11:54:22;;;;;;;10.73;6.15;;;4.10;99.90;;;;;;5075727;28;20444;-82
2020/12/25 11:56:47;;;;;;;10.82;6.80;;;4.10;99.90;;;;;;5094187;28;20063;-82
2020/12/25 11:59:13;;;;;;;8.60;5.93;;;4.10;99.90;;;;;;5075654;28;20471;-82
2020/12/25 12:01:38;;;;;;;8.27;5.53;;;4.10;99.90;;;;;;5093707;28;20528;-82
2020/12/25 12:04:04;;;;;;;9.77;6.03;;;4.20;99.90;;;;;;5075744;28;20558;-82
2020/12/25 12:06:30;;;;;;;8.40;6.05;;;4.40;99.90;;;;;;5075359;28;20028;-82
2020/12/25 12:08:56;;;;;;;9.05;5.47;;;4.40;99.90;;;;;;5075387;28;20088;-82
2020/12/25 12:11:21;;;;;;;9.05;5.47;;;4.40;99.90;;;;;;5094117;28;20107;-82
2020/12/25 12:13:47;;;;;;;8.85;6.22;;;4.20;99.90;;;;;;5075664;28;20422;-82
2020/12/25 12:16:20;;;;;;;12.60;4.97;;;4.30;99.90;;;;;;5075394;28;20024;-82
2020/12/25 12:18:46;;;;;;;6.72;5.50;;;4.30;99.90;;;;;;5075486;28;20493;-82
2020/12/25 12:21:11;;;;;;;11.43;5.78;;;4.30;99.90;;;;;;5075592;28;20064;-82
2020/12/25 12:23:37;;;;;;;6.80;5.20;;;4.50;99.90;;;;;;5075444;28;20111;-81
2020/12/25 12:26:04;;;;;;;9.10;5.53;;;4.60;99.90;;;;;;5094153;28;20024;-81
2020/12/25 12:28:30;;;;;;;8.40;5.07;;;4.60;99.90;;;;;;5093672;28;20365;-81
2020/12/25 12:30:55;;;;;;;7.47;5.65;;;4.60;99.90;;;;;;5096197;28;20165;-81
2020/12/25 12:33:21;;;;;;;7.47;4.57;;;4.70;99.90;;;;;;5079177;28;20115;-81
2020/12/25 12:35:47;;;;;;;7.57;4.82;;;4.70;99.90;;;;;;5097461;28;20095;-81
2020/12/25 12:38:13;;;;;;;9.35;4.65;;;4.50;99.90;;;;;;5097345;28;20073;-81
2020/12/25 12:40:39;;;;;;;8.60;5.90;;;4.50;99.90;;;;;;5097275;28;20069;-81
2020/12/25 12:43:05;;;;;;;7.88;4.95;;;4.60;99.90;;;;;;5097072;28;20435;-81
2020/12/25 12:45:31;;;;;;;8.95;5.85;;;4.60;99.90;;;;;;5097087;28;20020;-81
2020/12/25 12:47:57;;;;;;;7.88;5.40;;;4.40;99.90;;;;;;5078956;28;20360;-81
2020/12/25 12:50:23;;;;;;;7.85;5.30;;;4.20;99.90;;;;;;5078763;28;20033;-81
2020/12/25 12:52:48;;;;;;;8.45;5.28;;;4.20;99.90;;;;;;5078719;28;20052;-81
2020/12/25 12:55:14;;;;;;;10.18;6.05;;;4.20;99.90;;;;;;5096943;28;20058;-82